createdAt,value
2023-04-02T00:01:26.657Z,87.87
2023-04-02T00:04:14.429Z,87.77
2023-04-02T00:06:45.065Z,87.52
2023-04-02T00:09:14.619Z,87.50
2023-04-02T00:11:46.566Z,87.56
2023-04-02T00:14:22.050Z,87.87
2023-04-02T00:16:48.827Z,88.26
2023-04-02T00:19:23.057Z,88.92
2023-04-02T00:21:50.670Z,88.96
2023-04-02T00:24:20.862Z,88.86
2023-04-02T00:26:50.346Z,89.17
2023-04-02T00:29:18.925Z,89.45
2023-04-02T00:31:58.770Z,89.59
2023-04-02T00:34:37.335Z,89.66
2023-04-02T00:37:05.014Z,89.23
2023-04-02T00:39:39.125Z,89.11
2023-04-02T00:42:06.322Z,88.94
2023-04-02T00:44:37.838Z,88.03
2023-04-02T00:47:12.569Z,88.25
2023-04-02T00:49:41.335Z,88.72
2023-04-02T00:52:11.778Z,89.22
2023-04-02T00:55:06.816Z,88.98
2023-04-02T00:57:34.060Z,88.14
2023-04-02T01:00:15.759Z,88.77
2023-04-02T01:02:42.418Z,89.33
2023-04-02T01:05:14.896Z,89.14
2023-04-02T01:08:03.141Z,89.76
2023-04-02T01:10:57.758Z,89.06
2023-04-02T01:13:24.047Z,88.84
2023-04-02T01:15:55.300Z,88.22
2023-04-02T01:18:56.603Z,87.96
2023-04-02T01:21:42.579Z,87.98
2023-04-02T01:24:15.865Z,88.49
2023-04-02T01:27:01.081Z,87.99
2023-04-02T01:29:56.636Z,87.61
2023-04-02T01:32:25.810Z,88.18
2023-04-02T01:34:52.893Z,87.84
2023-04-02T01:37:32.287Z,87.11
2023-04-02T01:40:32.059Z,87.47
2023-04-02T01:43:22.278Z,88.39
2023-04-02T01:45:49.638Z,88.59
2023-04-02T01:48:24.526Z,87.56
2023-04-02T01:50:54.934Z,88.28
2023-04-02T01:53:24.114Z,88.54
2023-04-02T01:55:56.681Z,88.34
2023-04-02T01:58:29.118Z,88.71
2023-04-02T02:01:16.595Z,89.61
2023-04-02T02:03:44.553Z,89.95
2023-04-02T02:06:14.161Z,89.18
2023-04-02T02:08:45.936Z,89.18
2023-04-02T02:11:17.578Z,87.73
2023-04-02T02:13:53.158Z,87.82
2023-04-02T02:16:19.759Z,88.89
2023-04-02T02:18:52.038Z,88.46
2023-04-02T02:21:32.081Z,87.92
2023-04-02T02:23:59.934Z,87.73
2023-04-02T02:26:28.382Z,87.17
2023-04-02T02:28:57.421Z,87.29
2023-04-02T02:31:29.687Z,87.41
2023-04-02T02:34:01.951Z,87.84
2023-04-02T02:36:37.563Z,86.30
2023-04-02T02:39:16.936Z,86.87
2023-04-02T02:41:49.259Z,86.76
2023-04-02T02:44:21.602Z,86.42
2023-04-02T02:46:58.720Z,87.19
2023-04-02T02:49:31.992Z,86.78
2023-04-02T02:52:06.438Z,86.34
2023-04-02T02:54:36.195Z,86.14
2023-04-02T02:57:07.603Z,85.96
2023-04-02T02:59:34.738Z,85.52
2023-04-02T03:02:02.425Z,85.79
2023-04-02T03:04:35.573Z,86.54
2023-04-02T03:07:03.815Z,86.35
2023-04-02T03:10:09.598Z,85.38
2023-04-02T03:12:56.186Z,85.67
2023-04-02T03:15:34.172Z,86.46
2023-04-02T03:18:06.181Z,85.98
2023-04-02T03:20:48.547Z,85.95
2023-04-02T03:23:27.515Z,84.88
2023-04-02T03:26:04.929Z,85.64
2023-04-02T03:28:37.331Z,86.66
2023-04-02T03:31:08.958Z,87.19
2023-04-02T03:33:40.811Z,85.71
2023-04-02T03:36:20.180Z,85.98
2023-04-02T03:39:18.465Z,85.92
2023-04-02T03:41:52.414Z,85.59
2023-04-02T03:44:28.700Z,85.78
2023-04-02T03:47:03.609Z,85.50
2023-04-02T03:49:41.217Z,85.66
2023-04-02T03:52:13.728Z,86.31
2023-04-02T03:54:41.465Z,86.41
2023-04-02T03:57:34.198Z,86.29
2023-04-02T04:00:24.497Z,84.95
2023-04-02T04:02:54.174Z,85.61
2023-04-02T04:05:29.742Z,85.98
2023-04-02T04:08:02.056Z,86.12
2023-04-02T04:10:29.767Z,85.59
2023-04-02T04:13:03.773Z,86.35
2023-04-02T04:15:38.826Z,86.25
2023-04-02T04:18:19.329Z,86.21
2023-04-02T04:21:03.432Z,85.51
2023-04-02T04:23:37.418Z,85.25
2023-04-02T04:26:19.469Z,85.41
2023-04-02T04:29:15.283Z,86.17
2023-04-02T04:31:50.184Z,86.52
2023-04-02T04:34:22.875Z,85.96
2023-04-02T04:36:57.420Z,86.02
2023-04-02T04:39:30.862Z,87.00
2023-04-02T04:42:01.212Z,86.86
2023-04-02T04:44:55.909Z,88.03
2023-04-02T04:47:47.299Z,88.42
2023-04-02T04:50:40.454Z,88.20
2023-04-02T04:53:13.647Z,88.35
2023-04-02T04:55:44.012Z,89.21
2023-04-02T04:58:19.774Z,89.42
2023-04-02T05:01:04.788Z,89.16
2023-04-02T05:03:40.132Z,88.70
2023-04-02T05:06:16.072Z,89.14
2023-04-02T05:08:47.666Z,88.39
2023-04-02T05:11:38.195Z,87.63
2023-04-02T05:14:12.711Z,87.60
2023-04-02T05:16:46.910Z,87.33
2023-04-02T05:19:29.144Z,86.60
2023-04-02T05:22:03.512Z,86.08
2023-04-02T05:25:01.033Z,85.60
2023-04-02T05:27:52.484Z,85.14
2023-04-02T05:30:24.762Z,86.04
2023-04-02T05:32:58.696Z,84.64
2023-04-02T05:35:32.255Z,84.79
2023-04-02T05:38:01.785Z,86.45
2023-04-02T05:40:34.742Z,87.53
2023-04-02T05:43:07.267Z,87.18
2023-04-02T05:45:41.240Z,86.98
2023-04-02T05:48:17.659Z,87.46
2023-04-02T05:50:51.526Z,87.60
2023-04-02T05:53:25.665Z,87.62
2023-04-02T05:56:01.405Z,88.17
2023-04-02T05:58:36.529Z,87.21
2023-04-02T06:01:31.260Z,87.00
2023-04-02T06:04:34.141Z,86.59
2023-04-02T06:07:09.703Z,85.02
2023-04-02T06:10:00.273Z,85.54
2023-04-02T06:12:39.226Z,85.67
2023-04-02T06:15:06.785Z,85.18
2023-04-02T06:18:03.586Z,84.61
2023-04-02T06:20:30.017Z,85.29
2023-04-02T06:23:07.607Z,85.48
2023-04-02T06:25:39.236Z,85.94
2023-04-02T06:28:12.272Z,85.85
2023-04-02T06:30:41.668Z,85.98
2023-04-02T06:33:12.154Z,86.63
2023-04-02T06:35:41.938Z,86.66
2023-04-02T06:38:16.001Z,86.43
2023-04-02T06:40:49.641Z,87.11
2023-04-02T06:43:37.237Z,86.17
2023-04-02T06:46:11.051Z,85.73
2023-04-02T06:48:39.218Z,85.14
2023-04-02T06:51:10.423Z,85.45
2023-04-02T06:53:40.612Z,86.12
2023-04-02T06:56:22.185Z,85.61
2023-04-02T06:58:48.701Z,85.36
2023-04-02T07:01:23.691Z,84.11
2023-04-02T07:03:50.392Z,84.58
2023-04-02T07:06:19.177Z,82.88
2023-04-02T07:08:45.688Z,83.23
2023-04-02T07:11:15.534Z,83.77
2023-04-02T07:13:41.810Z,83.57
2023-04-02T07:16:14.836Z,83.79
2023-04-02T07:18:42.384Z,84.16
2023-04-02T07:21:09.091Z,84.94
2023-04-02T07:23:35.456Z,84.74
2023-04-02T07:26:02.306Z,85.29
2023-04-02T07:28:29.032Z,85.06
2023-04-02T07:30:56.370Z,85.75
2023-04-02T07:33:25.868Z,85.45
2023-04-02T07:35:54.945Z,85.13
2023-04-02T07:38:21.448Z,85.41
2023-04-02T07:40:47.854Z,85.34
2023-04-02T07:43:14.222Z,85.14
2023-04-02T07:45:40.783Z,83.84
2023-04-02T07:48:12.923Z,84.63
2023-04-02T07:50:39.331Z,84.49
2023-04-02T07:53:07.004Z,83.21
2023-04-02T07:55:33.667Z,83.25
2023-04-02T07:58:00.278Z,83.25
2023-04-02T08:00:28.573Z,82.45
2023-04-02T08:02:55.003Z,83.34
2023-04-02T08:05:22.352Z,83.33
2023-04-02T08:07:56.065Z,83.72
2023-04-02T08:10:23.161Z,83.20
2023-04-02T08:12:50.070Z,82.65
2023-04-02T08:15:16.973Z,81.89
2023-04-02T08:17:43.682Z,82.21
2023-04-02T08:20:22.028Z,80.97
2023-04-02T08:22:49.395Z,81.31
2023-04-02T08:25:16.771Z,80.28
2023-04-02T08:27:43.248Z,79.86
2023-04-02T08:30:12.634Z,79.55
2023-04-02T08:32:41.094Z,79.26
2023-04-02T08:35:12.308Z,77.86
2023-04-02T08:37:38.710Z,78.23
2023-04-02T08:40:07.369Z,78.26
2023-04-02T08:43:05.814Z,77.99
2023-04-02T08:46:01.230Z,78.14
2023-04-02T08:48:31.228Z,77.68
2023-04-02T08:50:58.896Z,76.88
2023-04-02T08:53:31.096Z,76.88
2023-04-02T08:56:05.527Z,76.04
2023-04-02T08:58:44.351Z,74.93
2023-04-02T09:01:35.689Z,75.11
2023-04-02T09:04:06.863Z,75.11
2023-04-02T09:06:33.799Z,74.36
2023-04-02T09:09:00.290Z,74.29
2023-04-02T09:11:44.718Z,74.44
2023-04-02T09:14:18.069Z,75.28
2023-04-02T09:16:53.762Z,74.39
2023-04-02T09:19:25.106Z,73.28
2023-04-02T09:22:04.383Z,73.14
2023-04-02T09:24:30.780Z,73.05
2023-04-02T09:26:57.185Z,74.23
2023-04-02T09:29:40.735Z,74.67
2023-04-02T09:32:24.452Z,75.36
2023-04-02T09:34:51.063Z,75.84
2023-04-02T09:37:22.839Z,76.46
2023-04-02T09:39:49.491Z,77.15
2023-04-02T09:42:29.979Z,76.91
2023-04-02T09:45:13.438Z,76.94
2023-04-02T09:47:42.479Z,77.23
2023-04-02T09:50:21.253Z,77.21
2023-04-02T09:52:48.446Z,77.78
2023-04-02T09:55:15.360Z,78.12
2023-04-02T09:57:42.513Z,78.09
2023-04-02T10:00:41.798Z,78.02
2023-04-02T10:03:29.877Z,78.58
2023-04-02T10:06:11.646Z,78.01
2023-04-02T10:08:41.452Z,77.91
2023-04-02T10:11:11.031Z,78.19
2023-04-02T10:13:53.065Z,78.01
2023-04-02T10:16:27.134Z,77.51
2023-04-02T10:19:13.303Z,77.24
2023-04-02T10:21:41.429Z,76.75
2023-04-02T10:24:13.821Z,76.09
2023-04-02T10:27:06.619Z,76.48
2023-04-02T10:29:44.429Z,76.84
2023-04-02T10:32:14.261Z,76.22
2023-04-02T10:35:02.697Z,75.83
2023-04-02T10:37:48.125Z,76.30
2023-04-02T10:40:31.902Z,76.70
2023-04-02T10:43:31.190Z,76.24
2023-04-02T10:46:06.754Z,75.39
2023-04-02T10:48:56.462Z,75.11
2023-04-02T10:51:40.172Z,75.12
2023-04-02T10:54:32.824Z,74.38
2023-04-02T10:57:14.441Z,74.22
2023-04-02T10:59:46.471Z,74.77
2023-04-02T11:02:28.651Z,74.63
2023-04-02T11:04:59.906Z,75.26
2023-04-02T11:07:33.810Z,75.25
2023-04-02T11:10:00.845Z,74.90
2023-04-02T11:12:50.570Z,74.51
2023-04-02T11:15:19.144Z,74.84
2023-04-02T11:17:46.247Z,75.30
2023-04-02T11:20:55.724Z,73.45
2023-04-02T11:23:22.394Z,74.24
2023-04-02T11:25:49.057Z,74.20
2023-04-02T11:28:29.313Z,74.79
2023-04-02T11:30:56.856Z,73.96
2023-04-02T11:33:41.964Z,74.11
2023-04-02T11:36:55.383Z,74.46
2023-04-02T11:39:58.106Z,74.69
2023-04-02T11:42:36.042Z,74.80
2023-04-02T11:45:23.820Z,74.60
2023-04-02T11:48:03.627Z,75.02
2023-04-02T11:50:41.243Z,74.93
2023-04-02T11:53:10.811Z,73.93
2023-04-02T11:55:42.152Z,73.62
2023-04-02T11:58:32.928Z,74.05
2023-04-02T12:01:05.540Z,74.30
2023-04-02T12:03:50.446Z,73.67
2023-04-02T12:06:47.190Z,72.42
2023-04-02T12:09:23.252Z,72.36
2023-04-02T12:11:52.068Z,72.23
2023-04-02T12:14:36.735Z,72.27
2023-04-02T12:17:05.805Z,72.09
2023-04-02T12:19:34.158Z,72.16
2023-04-02T12:22:01.594Z,72.43
2023-04-02T12:24:31.294Z,72.17
2023-04-02T12:27:08.633Z,71.82
2023-04-02T12:29:36.229Z,71.32
2023-04-02T12:32:04.095Z,71.63
2023-04-02T12:34:31.046Z,71.28
2023-04-02T12:37:00.359Z,70.21
2023-04-02T12:39:28.437Z,69.93
2023-04-02T12:41:55.403Z,69.22
2023-04-02T12:44:24.804Z,69.56
2023-04-02T12:46:52.376Z,69.59
2023-04-02T12:49:39.643Z,68.65
2023-04-02T12:52:10.126Z,69.02
2023-04-02T12:54:45.033Z,69.06
2023-04-02T12:57:27.150Z,68.55
2023-04-02T12:59:54.537Z,68.76
2023-04-02T13:02:26.366Z,68.21
2023-04-02T13:05:00.746Z,68.29
2023-04-02T13:07:30.190Z,67.89
2023-04-02T13:10:00.832Z,67.86
2023-04-02T13:12:34.842Z,67.86
2023-04-02T13:15:04.299Z,67.57
2023-04-02T13:17:48.854Z,67.09
2023-04-02T13:20:42.566Z,67.24
2023-04-02T13:23:27.177Z,68.28
2023-04-02T13:25:53.821Z,68.83
2023-04-02T13:28:20.811Z,68.87
2023-04-02T13:30:47.930Z,68.42
2023-04-02T13:33:15.149Z,68.65
2023-04-02T13:35:42.332Z,69.13
2023-04-02T13:38:08.974Z,68.98
2023-04-02T13:40:40.068Z,69.44
2023-04-02T13:43:07.125Z,69.28
2023-04-02T13:45:38.320Z,69.52
2023-04-02T13:48:05.779Z,68.67
2023-04-02T13:50:34.798Z,69.06
2023-04-02T13:53:09.815Z,69.32
2023-04-02T13:55:41.976Z,69.95
2023-04-02T13:58:08.412Z,69.86
2023-04-02T14:00:37.746Z,70.01
2023-04-02T14:03:09.917Z,70.09
2023-04-02T14:05:51.936Z,70.30
2023-04-02T14:08:40.985Z,70.21
2023-04-02T14:11:25.860Z,70.04
2023-04-02T14:13:59.828Z,70.65
2023-04-02T14:16:56.906Z,70.11
2023-04-02T14:19:41.354Z,70.19
2023-04-02T14:22:26.031Z,69.92
2023-04-02T14:25:17.065Z,70.16
2023-04-02T14:28:00.045Z,70.18
2023-04-02T14:30:51.210Z,69.40
2023-04-02T14:33:34.035Z,68.65
2023-04-02T14:36:26.452Z,68.83
2023-04-02T14:39:02.188Z,68.33
2023-04-02T14:41:41.363Z,68.20
2023-04-02T14:44:11.035Z,67.91
2023-04-02T14:46:38.573Z,68.25
2023-04-02T14:49:24.445Z,69.11
2023-04-02T14:51:57.498Z,68.10
2023-04-02T14:55:00.380Z,67.61
2023-04-02T14:57:38.611Z,68.00
2023-04-02T15:00:32.317Z,68.04
2023-04-02T15:03:22.974Z,67.03
2023-04-02T15:06:01.657Z,67.53
2023-04-02T15:08:31.823Z,67.21
2023-04-02T15:11:16.634Z,67.70
2023-04-02T15:13:52.150Z,67.08
2023-04-02T15:16:21.354Z,67.27
2023-04-02T15:18:52.494Z,66.99
2023-04-02T15:21:18.908Z,67.17
2023-04-02T15:24:04.013Z,66.93
2023-04-02T15:26:54.647Z,67.22
2023-04-02T15:29:51.156Z,67.42
2023-04-02T15:32:20.323Z,67.87
2023-04-02T15:35:17.644Z,67.64
2023-04-02T15:38:05.387Z,68.17
2023-04-02T15:41:08.507Z,68.35
2023-04-02T15:43:53.951Z,67.78
2023-04-02T15:46:50.375Z,67.78
2023-04-02T15:49:42.781Z,67.95
2023-04-02T15:52:33.233Z,66.98
2023-04-02T15:55:09.708Z,67.38
2023-04-02T15:58:13.590Z,67.48
2023-04-02T16:01:04.840Z,67.87
2023-04-02T16:03:58.073Z,67.65
2023-04-02T16:06:30.085Z,68.17
2023-04-02T16:09:26.953Z,67.88
2023-04-02T16:12:01.232Z,67.58
2023-04-02T16:14:30.313Z,67.22
2023-04-02T16:17:17.625Z,67.23
2023-04-02T16:20:16.612Z,67.40
2023-04-02T16:22:59.475Z,67.60
2023-04-02T16:25:31.219Z,67.50
2023-04-02T16:28:16.477Z,67.39
2023-04-02T16:31:02.558Z,68.08
2023-04-02T16:33:51.985Z,67.13
2023-04-02T16:37:10.965Z,66.97
2023-04-02T16:39:41.652Z,67.53
2023-04-02T16:42:32.980Z,67.66
2023-04-02T16:45:25.770Z,67.70
2023-04-02T16:48:16.759Z,67.20
2023-04-02T16:50:55.328Z,67.29
2023-04-02T16:54:00.417Z,67.71
2023-04-02T16:56:45.906Z,67.23
2023-04-02T16:59:48.940Z,67.18
2023-04-02T17:02:42.814Z,67.07
2023-04-02T17:05:29.435Z,67.77
2023-04-02T17:08:20.740Z,67.54
2023-04-02T17:11:01.198Z,67.79
2023-04-02T17:13:37.242Z,68.23
2023-04-02T17:16:36.866Z,68.54
2023-04-02T17:19:09.439Z,68.25
2023-04-02T17:21:38.046Z,68.70
2023-04-02T17:24:14.183Z,68.51
2023-04-02T17:26:43.381Z,68.40
2023-04-02T17:29:17.700Z,68.80
2023-04-02T17:31:45.779Z,69.22
2023-04-02T17:34:14.957Z,69.30
2023-04-02T17:37:13.563Z,69.47
2023-04-02T17:39:54.767Z,69.30
2023-04-02T17:42:36.409Z,69.89
2023-04-02T17:45:19.633Z,69.81
2023-04-02T17:48:05.748Z,70.07
2023-04-02T17:51:09.772Z,70.45
2023-04-02T17:54:10.413Z,71.25
2023-04-02T17:56:52.811Z,70.69
2023-04-02T17:59:38.101Z,71.28
2023-04-02T18:02:07.361Z,71.65
2023-04-02T18:04:52.513Z,71.40
2023-04-02T18:08:02.808Z,71.35
2023-04-02T18:10:41.911Z,71.92
2023-04-02T18:13:35.652Z,71.93
2023-04-02T18:16:11.472Z,71.78
2023-04-02T18:18:49.826Z,71.80
2023-04-02T18:21:28.322Z,71.58
2023-04-02T18:24:30.327Z,72.11
2023-04-02T18:27:21.401Z,71.83
2023-04-02T18:30:15.399Z,71.71
2023-04-02T18:33:06.557Z,72.12
2023-04-02T18:35:34.664Z,72.26
2023-04-02T18:38:09.848Z,72.22
2023-04-02T18:41:13.944Z,71.88
2023-04-02T18:44:00.477Z,71.93
2023-04-02T18:46:39.691Z,72.56
2023-04-02T18:49:28.039Z,72.08
2023-04-02T18:52:09.326Z,72.62
2023-04-02T18:54:39.676Z,72.51
2023-04-02T18:57:19.885Z,72.57
2023-04-02T18:59:57.084Z,72.94
2023-04-02T19:02:40.316Z,73.35
2023-04-02T19:05:24.711Z,73.65
2023-04-02T19:07:58.148Z,73.45
2023-04-02T19:10:37.134Z,73.68
2023-04-02T19:13:12.179Z,73.15
2023-04-02T19:15:49.770Z,73.69
2023-04-02T19:18:33.259Z,73.61
2023-04-02T19:21:15.037Z,73.73
2023-04-02T19:24:18.910Z,74.00
2023-04-02T19:27:07.066Z,73.53
2023-04-02T19:29:59.998Z,73.85
2023-04-02T19:33:10.517Z,74.16
2023-04-02T19:36:03.223Z,73.96
2023-04-02T19:38:51.271Z,74.33
2023-04-02T19:41:41.276Z,74.13
2023-04-02T19:44:11.274Z,74.52
2023-04-02T19:46:38.688Z,73.49
2023-04-02T19:49:12.500Z,73.57
2023-04-02T19:51:38.956Z,73.59
2023-04-02T19:54:05.506Z,73.74
2023-04-02T19:56:32.139Z,73.87
2023-04-02T19:59:02.299Z,73.27
2023-04-02T20:01:31.515Z,73.45
2023-04-02T20:03:58.143Z,73.56
2023-04-02T20:06:24.742Z,73.40
2023-04-02T20:08:51.193Z,72.96
2023-04-02T20:11:17.727Z,73.27
2023-04-02T20:13:44.124Z,72.99
2023-04-02T20:16:10.531Z,73.22
2023-04-02T20:18:37.430Z,73.31
2023-04-02T20:21:05.938Z,73.53
2023-04-02T20:23:33.857Z,72.96
2023-04-02T20:26:00.490Z,72.68
2023-04-02T20:28:27.521Z,72.36
2023-04-02T20:30:54.517Z,71.87
2023-04-02T20:33:24.198Z,72.41
2023-04-02T20:35:51.819Z,72.57
2023-04-02T20:38:18.713Z,72.21
2023-04-02T20:40:52.038Z,72.62
2023-04-02T20:43:18.486Z,71.80
2023-04-02T20:45:53.761Z,71.97
2023-04-02T20:48:20.131Z,71.91
2023-04-02T20:50:48.064Z,71.68
2023-04-02T20:53:15.709Z,71.80
2023-04-02T20:55:42.064Z,71.37
2023-04-02T20:58:08.533Z,71.15
2023-04-02T21:00:35.102Z,70.90
2023-04-02T21:03:01.598Z,71.24
2023-04-02T21:05:28.043Z,71.10
2023-04-02T21:07:54.422Z,71.44
2023-04-02T21:10:21.298Z,70.73
2023-04-02T21:12:47.725Z,70.77
2023-04-02T21:15:14.265Z,70.13
2023-04-02T21:17:40.674Z,69.25
2023-04-02T21:20:08.106Z,69.48
2023-04-02T21:22:35.488Z,69.37
2023-04-02T21:25:01.813Z,68.70
2023-04-02T21:27:28.175Z,68.72
2023-04-02T21:29:54.555Z,68.17
2023-04-02T21:32:21.990Z,68.43
2023-04-02T21:34:48.814Z,67.80
2023-04-02T21:37:15.396Z,67.03
2023-04-02T21:39:41.777Z,66.97
2023-04-02T21:42:08.393Z,67.65
2023-04-02T21:44:34.770Z,67.44
2023-04-02T21:47:01.120Z,67.49
2023-04-02T21:49:27.559Z,67.58
2023-04-02T21:51:54.036Z,67.22
2023-04-02T21:54:20.967Z,67.14
2023-04-02T21:56:48.129Z,67.84
2023-04-02T21:59:16.580Z,67.99
2023-04-02T22:01:48.583Z,67.71
2023-04-02T22:04:24.390Z,67.60
2023-04-02T22:06:52.524Z,67.38
2023-04-02T22:09:22.309Z,67.91
2023-04-02T22:11:51.459Z,67.69
2023-04-02T22:14:17.862Z,68.05
2023-04-02T22:16:44.484Z,67.60
2023-04-02T22:19:13.780Z,68.00
2023-04-02T22:21:40.903Z,67.71
2023-04-02T22:24:11.097Z,67.63
2023-04-02T22:26:38.089Z,67.99
2023-04-02T22:29:04.748Z,67.75
2023-04-02T22:31:33.375Z,67.99
2023-04-02T22:34:00.986Z,67.42
2023-04-02T22:36:29.486Z,67.69
2023-04-02T22:38:56.921Z,67.90
2023-04-02T22:41:27.155Z,67.37
2023-04-02T22:43:54.901Z,67.37
2023-04-02T22:46:21.696Z,67.59
2023-04-02T22:48:50.433Z,67.65
2023-04-02T22:51:18.743Z,67.11
2023-04-02T22:53:45.786Z,66.93
2023-04-02T22:56:17.777Z,67.43
2023-04-02T22:58:44.848Z,66.10
2023-04-02T23:01:19.269Z,66.82
2023-04-02T23:03:45.781Z,66.69
2023-04-02T23:06:15.514Z,67.25
2023-04-02T23:08:42.034Z,66.60
2023-04-02T23:11:11.026Z,67.29
2023-04-02T23:13:38.528Z,67.36
2023-04-02T23:16:07.606Z,66.85
2023-04-02T23:18:34.820Z,66.84
2023-04-02T23:21:01.372Z,66.19
2023-04-02T23:23:28.287Z,66.44
2023-04-02T23:26:10.964Z,65.05
2023-04-02T23:28:39.147Z,64.77
2023-04-02T23:31:07.560Z,64.91
2023-04-02T23:33:34.876Z,64.91
2023-04-02T23:36:06.987Z,64.77
2023-04-02T23:38:33.488Z,63.91
2023-04-02T23:40:59.841Z,64.73
2023-04-02T23:43:27.141Z,64.47
2023-04-02T23:45:53.606Z,64.16
2023-04-02T23:48:19.946Z,64.21
2023-04-02T23:50:46.371Z,64.39
2023-04-02T23:53:13.763Z,64.99
2023-04-02T23:55:40.403Z,64.91
2023-04-02T23:58:06.973Z,64.29
